Tuesday, October 21, 2014
08:50 UTC
  |  Log In   |  Register Free
Airport Search:

Dawson Municipal Airport
(16J)

Dawson Municipal Airport Diagram
No Airport Diagram Available

FAA data valid effective September 18, 2014 - November 13, 2014 (unless otherwise noted).

 
 
 
 
 
 
 
 
 
 
 
 
 
 

Current Aviation Weather for Dawson Municipal Airport (16J)

METAR data is unavailable for 16J. The nearest METAR location is at KABY (17 nm SE from 16J).

The most recent METAR observation for KABY was updated at: 0810
METAR Summary (Translated METAR)
KABY
210753Z 00000KT 10SM CLR 14/13 A3001 RMK AO2 SLP161 T01390128 $
(17 nm SE from 16J)
KACJ
210755Z AUTO 00000KT 10SM CLR 12/12 A3001 RMK AO2
(25 nm NE from 16J)
TAF Summary (Translated TAF)
KABY
210521Z 2106/2206 00000KT P6SM SKC FM211500 35006KT P6SM SKC
  Airport Weather Conditions for 16J

Current weather conditions are
not available for 16J


The nearest NOAA weather station
is at ABY, (17 nm SE from 16J)
  
 Current Weather at ABY
57° F
Fair
North winds at 0.0 mph
ABY NOAA Radar

Pressure: 30.01 in
Humidity: 93%
Wind: Calm
Dew Point: 55.0°F
Visibility: 10.00 mi


Airport Weather Forecast for 16J

Translated METAR and TAF for KABY
Translated METAR for KABY (0845 UTC 21 October 2014)
found at http://aviationweather.gov/adds/metars/
 
METAR text: KABY 210753Z 00000KT 10SM CLR 14/13 A3001 RMK AO2 SLP161 T01390128 $
Conditions at: KABY (ALBANY , GA, US) observed 0753 UTC 21 October 2014
Temperature: 13.9°C (57°F)
Dewpoint: 12.8°C (55°F) [RH = 93%]
Pressure (altimeter): 30.01 inches Hg (1016.3 mb)
[Sea-level pressure: 1016.1 mb]
Winds: calm
Visibility: 10 or more miles (16+ km)
Ceiling: at least 12,000 feet AGL
Clouds: sky clear below 12,000 feet AGL
Weather:
SOME DATA ABOVE MAY BE INACCURATE!!!
"$" is an indication the sensor requires maintenance
Translated TAF for KABY
Forecast for: KABY (ALBANY , GA, US)
TAF Text: KABY 210521Z 2106/2206 00000KT P6SM SKC
Forecast period: 0600 to 1500 UTC 21 October 2014
Forecast type: FROM: standard forecast or significant change
Winds: calm
Visibility: 6 or more miles (10+ km)
Clouds: clear skies
Weather: no significant weather forecast for this period
TAF Text: FM211500 35006KT P6SM SKC
Forecast period: 1500 UTC 21 October 2014 to 0600 UTC 22 October 2014
Forecast type: FROM: standard forecast or significant change
Winds: from the N (350 degrees) at 7 MPH (6 knots; 3.1 m/s)
Visibility: 6 or more miles (10+ km)
Clouds: clear skies
Weather: no significant weather forecast for this period

Find All Airport Services Find A Hotel Find A Rental Car Find A Golf Course Find A Restaurant $100 Hamburger



FBO's on the Field
FBO Company Facility Photos Services Transportation Aviation Fuel Prices: Prices include tax
Catering Weather Repair Courtesy Rental Type 100LL JetA JetA+ MOGAS 8087
 
Dawson/Terrell Co. Airport

This FBO has not yet been rated
FS:Independent
Last Updated: Oct-13
Login to update fuel prices
SS:
Contact Dawson/Terrell Co. AirportMore FBO Information
 
Add another FBO Facility Photos Catering Weather Repair Courtesy Rental Type 100LL JetA JetA+ MOGAS 8087
Services Transportation Aviation Fuel Prices: Prices include tax


model-print
model-print
model-print
model-print